createdAt,value
2023-01-31T00:00:26.285Z,9.00
2023-01-31T00:02:57.970Z,8.80
2023-01-31T00:05:26.824Z,9.20
2023-01-31T00:07:55.817Z,8.20
2023-01-31T00:10:24.722Z,10.10
2023-01-31T00:12:54.030Z,9.20
2023-01-31T00:15:22.841Z,10.40
2023-01-31T00:17:51.379Z,9.70
2023-01-31T00:20:20.168Z,9.30
2023-01-31T00:22:49.071Z,8.30
2023-01-31T00:25:18.477Z,9.40
2023-01-31T00:27:47.144Z,6.90
2023-01-31T00:30:16.547Z,9.20
2023-01-31T00:32:45.645Z,9.00
2023-01-31T00:35:14.234Z,9.60
2023-01-31T00:37:45.264Z,8.30
2023-01-31T00:40:21.840Z,9.80
2023-01-31T00:42:50.645Z,9.20
2023-01-31T00:45:19.378Z,8.60
2023-01-31T00:47:48.301Z,7.70
2023-01-31T00:50:18.675Z,9.20
2023-01-31T00:52:47.483Z,9.90
2023-01-31T00:55:16.888Z,10.70
2023-01-31T00:57:45.602Z,9.60
2023-01-31T01:00:15.314Z,9.10
2023-01-31T01:02:43.904Z,11.00
2023-01-31T01:05:12.687Z,12.00
2023-01-31T01:07:41.371Z,12.40
2023-01-31T01:10:11.305Z,13.60
2023-01-31T01:12:40.071Z,11.60
2023-01-31T01:15:10.403Z,13.30
2023-01-31T01:17:39.899Z,11.40
2023-01-31T01:20:09.623Z,11.30
2023-01-31T01:22:42.922Z,12.10
2023-01-31T01:25:11.598Z,10.70
2023-01-31T01:27:40.377Z,14.60
2023-01-31T01:30:10.117Z,12.70
2023-01-31T01:35:10.427Z,10.00
2023-01-31T01:37:38.913Z,10.70
2023-01-31T01:40:09.462Z,9.10
2023-01-31T01:42:38.128Z,10.10
2023-01-31T01:45:16.091Z,11.40
2023-01-31T01:47:51.067Z,9.60
2023-01-31T01:50:44.321Z,10.50
2023-01-31T01:53:16.151Z,11.10
2023-01-31T01:55:50.778Z,10.50
2023-01-31T01:58:24.520Z,10.80
2023-01-31T02:00:53.329Z,11.10
2023-01-31T02:03:22.199Z,10.20
2023-01-31T02:05:53.548Z,11.10
2023-01-31T02:08:24.165Z,11.70
2023-01-31T02:11:08.107Z,8.60
2023-01-31T02:13:38.273Z,11.20
2023-01-31T02:18:36.936Z,9.70
2023-01-31T02:21:38.486Z,10.30
2023-01-31T02:24:37.993Z,10.00
2023-01-31T02:27:15.997Z,8.80
2023-01-31T02:30:22.929Z,10.10
2023-01-31T02:33:01.196Z,9.10
2023-01-31T02:38:09.843Z,9.60
2023-01-31T02:40:45.690Z,8.70
2023-01-31T02:44:04.539Z,10.60
2023-01-31T02:46:46.752Z,10.40
2023-01-31T02:49:36.994Z,9.80
2023-01-31T02:52:27.942Z,10.50
2023-01-31T02:55:27.460Z,11.10
2023-01-31T02:57:57.262Z,11.20
2023-01-31T03:00:26.563Z,10.60
2023-01-31T03:02:56.680Z,10.40
2023-01-31T03:05:25.893Z,9.70
2023-01-31T03:07:56.920Z,8.40
2023-01-31T03:10:28.885Z,14.70
2023-01-31T03:13:36.788Z,14.80
2023-01-31T03:16:27.109Z,14.30
2023-01-31T03:18:58.836Z,13.50
2023-01-31T03:21:37.866Z,13.20
2023-01-31T03:24:06.958Z,15.00
2023-01-31T03:26:36.596Z,13.60
2023-01-31T03:29:05.559Z,13.30
2023-01-31T03:31:38.370Z,13.60
2023-01-31T03:34:08.972Z,14.90
2023-01-31T03:36:37.476Z,12.50
2023-01-31T03:39:48.041Z,12.10
2023-01-31T03:42:38.212Z,13.40
2023-01-31T03:45:20.857Z,13.50
2023-01-31T03:47:51.556Z,12.40
2023-01-31T03:50:30.175Z,10.10
2023-01-31T03:53:38.282Z,11.80
2023-01-31T03:56:27.659Z,13.20
2023-01-31T03:59:01.584Z,15.70
2023-01-31T04:01:32.548Z,14.60
2023-01-31T04:04:33.263Z,15.70
2023-01-31T04:07:02.231Z,14.80
2023-01-31T04:09:32.173Z,14.50
2023-01-31T04:12:01.655Z,16.90
2023-01-31T04:14:30.455Z,12.80
2023-01-31T04:16:59.019Z,14.00
2023-01-31T04:19:27.504Z,19.10
2023-01-31T04:21:56.013Z,15.30
2023-01-31T04:24:24.877Z,13.40
2023-01-31T04:26:53.455Z,13.70
2023-01-31T04:29:22.141Z,17.50
2023-01-31T04:31:51.079Z,17.70
2023-01-31T04:34:19.819Z,18.10
2023-01-31T04:36:48.502Z,17.60
2023-01-31T04:39:17.228Z,16.10
2023-01-31T04:41:45.983Z,17.10
2023-01-31T04:44:14.661Z,16.90
2023-01-31T04:46:43.508Z,18.20
2023-01-31T04:49:12.568Z,13.60
2023-01-31T04:51:41.131Z,16.70
2023-01-31T04:54:09.611Z,20.30
2023-01-31T04:56:38.912Z,20.00
2023-01-31T04:59:07.737Z,20.80
2023-01-31T05:01:36.485Z,17.70
2023-01-31T05:04:05.181Z,18.60
2023-01-31T05:06:33.675Z,18.90
2023-01-31T05:09:05.372Z,17.50
2023-01-31T05:11:34.182Z,19.20
2023-01-31T05:14:03.702Z,17.90
2023-01-31T05:19:02.925Z,18.00
2023-01-31T05:21:51.246Z,16.60
2023-01-31T05:24:20.568Z,17.60
2023-01-31T05:26:51.008Z,18.00
2023-01-31T05:29:20.674Z,18.70
2023-01-31T05:31:53.831Z,17.50
2023-01-31T05:34:22.989Z,16.20
2023-01-31T05:36:52.819Z,19.50
2023-01-31T05:39:21.596Z,17.70
2023-01-31T05:41:50.523Z,15.00
2023-01-31T05:44:19.980Z,17.50
2023-01-31T05:46:49.685Z,17.10
2023-01-31T05:49:18.306Z,15.60
2023-01-31T05:51:47.167Z,15.30
2023-01-31T05:54:16.188Z,16.50
2023-01-31T05:56:46.753Z,20.00
2023-01-31T05:59:16.401Z,17.70
2023-01-31T06:01:46.510Z,21.20
2023-01-31T06:04:15.467Z,23.50
2023-01-31T06:06:45.737Z,20.40
2023-01-31T06:09:15.350Z,16.70
2023-01-31T06:11:44.945Z,16.70
2023-01-31T06:14:13.747Z,17.10
2023-01-31T06:16:42.279Z,16.30
2023-01-31T06:19:10.795Z,19.80
2023-01-31T06:21:40.303Z,22.80
2023-01-31T06:24:09.204Z,20.50
2023-01-31T06:26:38.229Z,19.30
2023-01-31T06:29:09.085Z,17.60
2023-01-31T06:34:06.594Z,20.80
2023-01-31T06:36:35.485Z,23.20
2023-01-31T06:39:04.685Z,21.50
2023-01-31T06:41:33.174Z,18.60
2023-01-31T06:44:02.307Z,23.30
2023-01-31T06:46:31.609Z,22.40
2023-01-31T06:49:00.246Z,25.00
2023-01-31T06:51:31.717Z,16.70
2023-01-31T06:54:00.420Z,16.00
2023-01-31T06:56:29.273Z,17.50
2023-01-31T06:58:58.058Z,16.10
2023-01-31T07:01:27.449Z,15.80
2023-01-31T07:03:56.626Z,15.70
2023-01-31T07:06:25.447Z,18.10
2023-01-31T07:08:54.131Z,18.70
2023-01-31T07:11:22.930Z,16.40
2023-01-31T07:13:51.888Z,17.80
2023-01-31T07:16:23.000Z,16.30
2023-01-31T07:18:53.588Z,20.60
2023-01-31T07:21:25.045Z,18.90
2023-01-31T07:23:54.231Z,15.50
2023-01-31T07:26:24.458Z,19.40
2023-01-31T07:28:53.957Z,16.80
2023-01-31T07:31:22.605Z,17.40
2023-01-31T07:33:51.533Z,19.80
2023-01-31T07:36:26.708Z,20.20
2023-01-31T11:38:13.235Z,27.00
2023-01-31T11:40:41.891Z,24.10
2023-01-31T11:43:19.941Z,22.20
2023-01-31T11:45:58.579Z,20.70
2023-01-31T11:48:33.577Z,20.90
2023-01-31T11:51:02.000Z,25.30
2023-01-31T11:53:50.118Z,28.80
2023-01-31T11:56:23.083Z,24.60
2023-01-31T11:58:57.204Z,21.80
2023-01-31T12:01:26.292Z,29.50
2023-01-31T12:04:03.485Z,26.10
2023-01-31T12:06:40.433Z,20.60
2023-01-31T12:09:23.582Z,20.10
2023-01-31T12:12:00.055Z,23.50
2023-01-31T12:14:40.745Z,24.40
2023-01-31T12:17:14.533Z,27.20
2023-01-31T12:19:52.014Z,22.80
2023-01-31T12:22:40.461Z,25.00
2023-01-31T12:25:26.763Z,24.00
2023-01-31T12:28:02.963Z,24.90
2023-01-31T12:30:58.026Z,22.60
2023-01-31T12:33:39.305Z,23.50
2023-01-31T12:36:30.624Z,22.70
2023-01-31T12:39:28.389Z,26.90
2023-01-31T12:41:59.844Z,21.40
2023-01-31T12:44:31.800Z,21.50
2023-01-31T12:47:16.384Z,24.20
2023-01-31T12:50:16.485Z,21.20
2023-01-31T12:53:00.530Z,21.20
2023-01-31T12:55:31.180Z,16.90
2023-01-31T12:58:14.894Z,20.00
2023-01-31T13:01:08.029Z,18.80
2023-01-31T13:04:01.116Z,19.00
2023-01-31T13:06:35.025Z,18.30
2023-01-31T13:09:11.527Z,19.40
2023-01-31T13:11:43.250Z,16.30
2023-01-31T13:14:16.037Z,22.00
2023-01-31T13:16:46.053Z,20.60
2023-01-31T13:19:32.696Z,23.40
2023-01-31T13:22:03.542Z,20.40
2023-01-31T13:24:37.702Z,17.50
2023-01-31T13:27:11.102Z,21.70
2023-01-31T13:29:44.803Z,16.50
2023-01-31T13:32:14.729Z,15.70
2023-01-31T13:34:52.416Z,18.70
2023-01-31T13:37:21.656Z,18.50
2023-01-31T13:39:52.738Z,16.40
2023-01-31T13:42:21.336Z,17.60
2023-01-31T13:44:50.532Z,17.70
2023-01-31T13:47:25.973Z,16.10
2023-01-31T13:49:58.879Z,17.80
2023-01-31T13:52:36.761Z,19.80
2023-01-31T13:55:09.910Z,17.60
2023-01-31T13:57:46.947Z,17.30
2023-01-31T14:00:42.450Z,16.50
2023-01-31T14:03:15.771Z,15.40
2023-01-31T14:05:50.243Z,20.10
2023-01-31T14:08:27.767Z,17.70
2023-01-31T14:11:22.237Z,19.50
2023-01-31T14:14:08.955Z,19.00
2023-01-31T14:16:46.218Z,14.30
2023-01-31T14:19:22.298Z,15.30
2023-01-31T14:21:58.265Z,18.20
2023-01-31T14:25:00.515Z,18.90
2023-01-31T14:27:33.981Z,20.50
2023-01-31T14:30:06.081Z,16.40
2023-01-31T14:32:45.069Z,15.50
2023-01-31T14:35:15.346Z,15.10
2023-01-31T14:38:18.431Z,19.50
2023-01-31T14:41:09.235Z,22.50
2023-01-31T14:44:15.617Z,23.90
2023-01-31T14:47:13.684Z,24.40
2023-01-31T14:50:05.900Z,19.30
2023-01-31T14:52:53.750Z,27.60
2023-01-31T14:55:33.603Z,16.60
2023-01-31T14:58:02.799Z,20.60
2023-01-31T15:00:38.644Z,19.60
2023-01-31T15:03:22.781Z,19.10
2023-01-31T15:05:53.377Z,16.10
2023-01-31T15:08:22.111Z,14.80
2023-01-31T15:10:58.296Z,17.60
2023-01-31T15:13:47.613Z,19.20
2023-01-31T15:16:22.125Z,16.60
2023-01-31T15:18:59.150Z,19.90
2023-01-31T15:21:52.267Z,15.20
2023-01-31T15:24:34.328Z,16.50
2023-01-31T15:27:04.535Z,20.00
2023-01-31T15:29:57.176Z,20.10
2023-01-31T15:32:46.161Z,15.70
2023-01-31T15:35:24.191Z,14.40
2023-01-31T15:38:29.078Z,16.10
2023-01-31T15:41:16.503Z,19.30
2023-01-31T15:43:45.797Z,17.30
2023-01-31T15:46:25.473Z,19.70
2023-01-31T15:48:54.023Z,19.80
2023-01-31T15:51:23.645Z,22.10
2023-01-31T15:54:03.404Z,20.70
2023-01-31T15:56:34.725Z,16.20
2023-01-31T15:59:17.291Z,17.20
2023-01-31T16:01:49.923Z,22.40
2023-01-31T16:04:18.410Z,19.70
2023-01-31T16:06:50.563Z,20.20
2023-01-31T16:09:32.565Z,16.90
2023-01-31T18:49:34.320Z,20.00
2023-01-31T18:52:07.313Z,21.40
2023-01-31T18:54:37.922Z,20.40
2023-01-31T18:57:07.137Z,19.70
2023-01-31T18:59:36.852Z,26.50
2023-01-31T19:02:06.091Z,16.70
2023-01-31T19:04:35.871Z,18.00
2023-01-31T19:07:05.051Z,23.00
2023-01-31T19:09:33.646Z,22.00
2023-01-31T19:12:05.599Z,18.50
2023-01-31T19:14:36.231Z,20.00
2023-01-31T19:17:06.964Z,20.00
2023-01-31T19:19:36.979Z,19.90
2023-01-31T19:22:08.331Z,17.50
2023-01-31T19:24:37.013Z,15.60
2023-01-31T19:27:06.347Z,15.50
2023-01-31T19:29:39.489Z,19.20
2023-01-31T19:32:13.416Z,18.00
2023-01-31T19:34:42.922Z,18.70
2023-01-31T19:37:14.961Z,21.50
2023-01-31T19:39:47.822Z,17.40
2023-01-31T19:42:16.879Z,15.60
2023-01-31T19:44:47.613Z,17.90
2023-01-31T19:47:16.330Z,21.70
2023-01-31T19:49:49.121Z,17.50
2023-01-31T19:52:18.849Z,20.40
2023-01-31T19:54:50.320Z,18.80
2023-01-31T19:57:21.366Z,18.60
2023-01-31T19:59:50.870Z,18.20
2023-01-31T20:02:19.640Z,21.20
2023-01-31T20:04:50.086Z,20.50
2023-01-31T20:07:21.875Z,20.10
2023-01-31T20:09:51.706Z,19.80
2023-01-31T20:12:23.612Z,22.10
2023-01-31T20:14:53.975Z,19.10
2023-01-31T20:17:25.395Z,20.20
2023-01-31T20:19:54.432Z,20.80
2023-01-31T20:22:25.179Z,20.20
2023-01-31T20:24:55.276Z,18.30
2023-01-31T20:27:26.014Z,17.00
2023-01-31T20:29:55.672Z,20.00
2023-01-31T20:32:24.370Z,18.60
2023-01-31T20:34:53.871Z,17.90
2023-01-31T20:37:23.676Z,18.60
2023-01-31T20:39:52.980Z,18.10
2023-01-31T20:42:22.079Z,17.60
2023-01-31T20:44:51.281Z,18.80
2023-01-31T20:47:20.262Z,21.10
2023-01-31T20:49:49.561Z,18.00
2023-01-31T20:52:21.832Z,19.50
2023-01-31T20:54:50.833Z,19.90
2023-01-31T20:57:20.331Z,17.00
2023-01-31T20:59:50.749Z,18.00
2023-01-31T21:04:49.975Z,18.70
2023-01-31T21:07:18.566Z,17.20
2023-01-31T21:09:47.984Z,17.10
2023-01-31T21:12:17.667Z,16.80
2023-01-31T21:14:46.356Z,17.30
2023-01-31T21:17:22.664Z,18.70
2023-01-31T21:19:59.061Z,18.90
2023-01-31T21:22:31.701Z,19.60
2023-01-31T21:25:00.382Z,17.50
2023-01-31T21:27:31.873Z,17.50
2023-01-31T21:30:01.549Z,18.60
2023-01-31T21:32:30.872Z,18.80
2023-01-31T21:34:59.594Z,20.40
2023-01-31T21:37:28.288Z,17.60
2023-01-31T21:39:56.662Z,16.30
2023-01-31T21:42:25.978Z,16.30
2023-01-31T21:44:54.872Z,17.20
2023-01-31T21:47:23.532Z,17.40
2023-01-31T21:49:52.636Z,17.40
2023-01-31T21:52:22.136Z,17.90
2023-01-31T21:54:50.929Z,17.30
2023-01-31T21:57:21.154Z,17.90
2023-01-31T21:59:50.034Z,23.50
2023-01-31T22:02:19.065Z,18.50
2023-01-31T22:04:48.947Z,22.50
2023-01-31T22:07:18.037Z,21.50
2023-01-31T22:09:46.721Z,18.30
2023-01-31T22:12:16.045Z,20.20
2023-01-31T22:14:44.808Z,21.80
2023-01-31T22:17:13.397Z,24.30
2023-01-31T22:19:43.143Z,21.90
2023-01-31T22:22:12.209Z,18.10
2023-01-31T22:24:40.882Z,24.30
2023-01-31T22:27:09.362Z,27.00
2023-01-31T22:29:38.253Z,23.50
2023-01-31T22:32:07.742Z,28.00
2023-01-31T22:34:37.161Z,22.90
2023-01-31T22:37:05.887Z,28.50
2023-01-31T22:39:34.441Z,85.20
2023-01-31T22:42:05.681Z,23.00
2023-01-31T22:44:34.467Z,24.10
2023-01-31T22:47:03.461Z,24.20
2023-01-31T22:49:33.473Z,24.40
2023-01-31T22:52:02.157Z,24.00
2023-01-31T22:54:31.047Z,25.80
2023-01-31T22:56:59.842Z,22.30
2023-01-31T22:59:29.346Z,23.20
2023-01-31T23:01:57.927Z,22.60
2023-01-31T23:04:26.824Z,21.20
2023-01-31T23:06:55.707Z,24.50
2023-01-31T23:09:24.697Z,26.80
2023-01-31T23:11:54.865Z,23.20
2023-01-31T23:14:23.615Z,21.20
2023-01-31T23:17:10.930Z,20.70
2023-01-31T23:19:40.548Z,26.70
2023-01-31T23:22:09.844Z,26.70
2023-01-31T23:24:39.034Z,21.20
2023-01-31T23:27:08.040Z,20.30
2023-01-31T23:29:36.932Z,23.80
2023-01-31T23:32:06.113Z,25.40
2023-01-31T23:34:34.602Z,26.40
2023-01-31T23:37:03.592Z,26.20
2023-01-31T23:39:32.173Z,22.10
2023-01-31T23:42:00.959Z,23.90
2023-01-31T23:44:30.462Z,20.30
2023-01-31T23:46:58.943Z,23.50
2023-01-31T23:49:27.635Z,21.90
2023-01-31T23:51:56.725Z,20.90
2023-01-31T23:54:25.922Z,20.10
2023-01-31T23:56:54.513Z,23.90
2023-01-31T23:59:23.192Z,24.70
